createdAt,value
2022-10-20T00:01:28.241Z,6.00
2022-10-20T00:03:56.225Z,5.57
2022-10-20T00:06:32.454Z,6.37
2022-10-20T00:09:02.648Z,5.97
2022-10-20T00:11:43.172Z,4.39
2022-10-20T00:14:10.414Z,5.00
2022-10-20T00:16:39.207Z,5.43
2022-10-20T00:19:06.539Z,4.93
2022-10-20T00:21:33.532Z,5.37
2022-10-20T00:24:02.336Z,5.50
2022-10-20T00:26:31.646Z,5.57
2022-10-20T00:28:58.794Z,5.83
2022-10-20T00:31:26.395Z,5.63
2022-10-20T00:33:53.639Z,5.47
2022-10-20T00:36:23.533Z,5.70
2022-10-20T00:38:51.611Z,6.33
2022-10-20T00:41:21.407Z,5.20
2022-10-20T00:43:59.416Z,5.17
2022-10-20T00:46:44.616Z,5.03
2022-10-20T00:49:25.996Z,4.70
2022-10-20T00:51:54.803Z,5.97
2022-10-20T00:54:26.911Z,5.83
2022-10-20T00:56:56.680Z,5.80
2022-10-20T00:59:33.074Z,5.53
2022-10-20T01:02:02.475Z,5.93
2022-10-20T01:04:31.988Z,5.30
2022-10-20T01:06:59.293Z,5.40
2022-10-20T01:09:26.778Z,5.73
2022-10-20T01:12:11.482Z,5.43
2022-10-20T01:15:13.429Z,6.10
2022-10-20T01:18:02.176Z,5.53
2022-10-20T01:21:05.073Z,5.47
2022-10-20T01:24:11.741Z,4.93
2022-10-20T01:27:09.393Z,5.07
2022-10-20T01:30:21.378Z,5.57
2022-10-20T01:33:05.300Z,4.80
2022-10-20T01:36:00.306Z,5.37
2022-10-20T01:38:39.225Z,5.57
2022-10-20T01:41:34.171Z,5.07
2022-10-20T01:44:10.749Z,4.70
2022-10-20T01:46:41.258Z,5.17
2022-10-20T01:49:09.587Z,5.17
2022-10-20T01:51:36.595Z,5.73
2022-10-20T01:54:03.752Z,5.30
2022-10-20T01:56:47.291Z,6.40
2022-10-20T01:59:39.116Z,5.83
2022-10-20T02:02:16.951Z,5.60
2022-10-20T02:05:24.632Z,5.53
2022-10-20T02:08:00.497Z,4.70
2022-10-20T02:10:36.492Z,4.97
2022-10-20T02:13:07.316Z,4.70
2022-10-20T02:15:39.504Z,4.80
2022-10-20T02:18:09.355Z,5.47
2022-10-20T02:20:36.325Z,5.27
2022-10-20T02:23:06.492Z,5.20
2022-10-20T02:25:34.701Z,5.50
2022-10-20T02:28:04.596Z,5.37
2022-10-20T02:30:32.221Z,5.73
2022-10-20T02:32:59.161Z,5.27
2022-10-20T02:35:33.344Z,6.17
2022-10-20T02:38:01.152Z,5.67
2022-10-20T02:40:28.540Z,4.70
2022-10-20T02:42:55.427Z,5.17
2022-10-20T02:45:22.461Z,5.40
2022-10-20T02:47:49.342Z,5.90
2022-10-20T02:50:17.170Z,4.97
2022-10-20T02:52:44.109Z,5.33
2022-10-20T02:55:11.142Z,4.53
2022-10-20T02:57:38.618Z,5.60
2022-10-20T03:00:07.800Z,5.47
2022-10-20T03:02:34.937Z,5.20
2022-10-20T03:05:01.968Z,5.57
2022-10-20T03:07:28.940Z,5.50
2022-10-20T03:09:55.883Z,5.47
2022-10-20T03:12:22.865Z,5.57
2022-10-20T03:14:49.863Z,5.90
2022-10-20T03:17:16.843Z,5.77
2022-10-20T03:19:43.873Z,5.20
2022-10-20T03:22:10.947Z,5.83
2022-10-20T03:24:37.911Z,6.47
2022-10-20T03:27:04.907Z,5.73
2022-10-20T03:29:31.930Z,6.77
2022-10-20T03:31:58.929Z,5.97
2022-10-20T03:34:25.938Z,5.77
2022-10-20T03:36:53.156Z,6.00
2022-10-20T03:39:20.240Z,5.37
2022-10-20T03:41:47.273Z,5.03
2022-10-20T03:44:14.301Z,5.97
2022-10-20T03:46:41.251Z,6.17
2022-10-20T03:49:08.227Z,6.13
2022-10-20T03:51:35.222Z,5.33
2022-10-20T03:54:02.132Z,5.57
2022-10-20T03:56:29.035Z,5.50
2022-10-20T03:58:56.001Z,5.63
2022-10-20T04:01:31.188Z,5.80
2022-10-20T04:03:58.476Z,5.40
2022-10-20T04:06:25.699Z,5.37
2022-10-20T04:08:52.664Z,6.07
2022-10-20T04:11:19.654Z,5.27
2022-10-20T04:13:46.673Z,5.63
2022-10-20T04:16:13.732Z,6.07
2022-10-20T04:18:40.740Z,5.63
2022-10-20T04:21:07.692Z,6.47
2022-10-20T04:23:34.654Z,5.10
2022-10-20T04:26:09.742Z,5.00
2022-10-20T04:28:36.854Z,5.87
2022-10-20T04:31:04.669Z,5.50
2022-10-20T04:33:31.818Z,6.20
2022-10-20T04:36:06.010Z,5.30
2022-10-20T04:38:34.676Z,5.93
2022-10-20T04:41:04.483Z,5.93
2022-10-20T04:43:34.664Z,5.30
2022-10-20T04:46:07.294Z,6.57
2022-10-20T04:48:37.204Z,6.07
2022-10-20T04:51:10.524Z,5.90
2022-10-20T04:53:37.908Z,5.93
2022-10-20T04:56:07.332Z,5.27
2022-10-20T04:58:35.374Z,5.40
2022-10-20T05:01:07.050Z,5.93
2022-10-20T05:03:35.156Z,6.40
2022-10-20T05:06:27.935Z,5.40
2022-10-20T05:08:58.983Z,7.03
2022-10-20T05:11:28.702Z,6.43
2022-10-20T05:13:56.250Z,6.53
2022-10-20T05:16:24.190Z,6.77
2022-10-20T05:18:54.355Z,7.87
2022-10-20T05:21:26.608Z,6.87
2022-10-20T05:24:04.075Z,6.80
2022-10-20T05:26:34.955Z,7.00
2022-10-20T05:29:08.142Z,6.43
2022-10-20T05:31:43.910Z,6.43
2022-10-20T05:34:12.052Z,5.93
2022-10-20T05:36:39.127Z,5.90
2022-10-20T05:39:06.398Z,6.67
2022-10-20T05:41:37.917Z,5.97
2022-10-20T05:44:09.014Z,6.30
2022-10-20T05:46:41.312Z,6.80
2022-10-20T05:49:14.310Z,7.40
2022-10-20T05:51:41.671Z,7.60
2022-10-20T05:54:12.354Z,7.80
2022-10-20T05:56:39.735Z,7.47
2022-10-20T05:59:07.000Z,6.30
2022-10-20T06:01:48.300Z,7.57
2022-10-20T06:04:24.795Z,7.33
2022-10-20T06:06:53.160Z,8.03
2022-10-20T06:09:21.039Z,7.80
2022-10-20T06:11:48.614Z,8.10
2022-10-20T06:14:15.949Z,8.00
2022-10-20T06:16:43.608Z,6.80
2022-10-20T06:19:10.992Z,8.27
2022-10-20T06:21:38.650Z,7.13
2022-10-20T06:24:06.995Z,7.00
2022-10-20T06:26:38.900Z,7.23
2022-10-20T06:29:10.997Z,6.57
2022-10-20T06:31:41.698Z,7.00
2022-10-20T06:34:13.394Z,7.30
2022-10-20T06:36:42.039Z,6.77
2022-10-20T06:39:14.373Z,7.07
2022-10-20T06:41:41.635Z,7.10
2022-10-20T06:44:08.659Z,8.20
2022-10-20T06:46:37.132Z,8.93
2022-10-20T06:49:07.092Z,7.40
2022-10-20T06:51:36.076Z,9.00
2022-10-20T06:54:03.862Z,7.87
2022-10-20T06:56:34.108Z,9.10
2022-10-20T06:59:02.202Z,7.23
2022-10-20T07:01:39.698Z,7.30
2022-10-20T07:04:11.388Z,8.10
2022-10-20T07:06:41.424Z,9.60
2022-10-20T07:09:14.051Z,10.83
2022-10-20T07:11:42.040Z,9.25
2022-10-20T07:14:12.713Z,8.93
2022-10-20T07:16:39.741Z,9.75
2022-10-20T07:19:06.719Z,11.75
2022-10-20T07:21:38.338Z,11.13
2022-10-20T07:24:09.254Z,9.40
2022-10-20T07:26:40.966Z,10.68
2022-10-20T07:29:08.846Z,12.20
2022-10-20T07:31:45.555Z,10.73
2022-10-20T07:34:30.988Z,11.77
2022-10-20T07:36:58.229Z,10.98
2022-10-20T07:39:26.187Z,10.73
2022-10-20T07:41:53.525Z,10.27
2022-10-20T07:44:20.765Z,10.70
2022-10-20T07:46:47.769Z,11.35
2022-10-20T07:52:01.659Z,11.05
2022-10-20T07:54:28.592Z,11.80
2022-10-20T07:56:55.526Z,14.30
2022-10-20T07:59:22.567Z,13.05
2022-10-20T08:01:49.557Z,13.23
2022-10-20T08:04:16.609Z,13.23
2022-10-20T08:06:43.513Z,12.68
2022-10-20T08:09:10.573Z,12.07
2022-10-20T08:11:37.505Z,12.13
2022-10-20T08:14:05.024Z,11.80
2022-10-20T08:16:37.277Z,10.77
2022-10-20T08:21:47.983Z,15.27
2022-10-20T08:24:14.936Z,14.75
2022-10-20T08:26:42.025Z,13.18
2022-10-20T08:29:09.964Z,12.85
2022-10-20T08:31:36.897Z,12.48
2022-10-20T08:34:03.913Z,12.95
2022-10-20T08:36:31.074Z,10.88
2022-10-20T08:39:03.614Z,12.25
2022-10-20T08:44:35.209Z,12.07
2022-10-20T08:47:13.292Z,12.20
2022-10-20T08:49:40.354Z,10.73
2022-10-20T08:52:14.962Z,9.27
2022-10-20T08:54:42.217Z,9.40
2022-10-20T08:57:33.331Z,9.65
2022-10-20T09:00:22.527Z,8.55
2022-10-20T09:02:50.804Z,8.18
2022-10-20T09:05:32.000Z,8.10
2022-10-20T09:07:59.071Z,8.15
2022-10-20T09:10:44.634Z,7.72
2022-10-20T09:13:28.102Z,7.60
2022-10-20T09:16:41.957Z,7.28
2022-10-20T09:19:23.389Z,8.23
2022-10-20T09:21:54.850Z,7.25
2022-10-20T09:24:24.374Z,7.15
2022-10-20T09:26:59.243Z,7.03
2022-10-20T09:29:38.909Z,7.00
2022-10-20T09:35:30.244Z,6.88
2022-10-20T09:37:59.265Z,7.72
2022-10-20T09:40:27.874Z,6.30
2022-10-20T09:43:02.288Z,5.85
2022-10-20T09:45:32.539Z,5.03
2022-10-20T09:48:15.254Z,4.63
2022-10-20T09:50:51.409Z,4.32
2022-10-20T09:53:23.987Z,4.82
2022-10-20T09:55:52.247Z,4.35
2022-10-20T09:58:31.070Z,4.65
2022-10-20T10:01:17.330Z,6.40
2022-10-20T10:03:48.155Z,6.93
2022-10-20T10:06:38.876Z,5.90
2022-10-20T10:09:35.235Z,3.90
2022-10-20T10:12:10.869Z,3.85
2022-10-20T10:14:39.101Z,4.90
2022-10-20T10:17:06.061Z,4.28
2022-10-20T10:19:34.380Z,3.80
2022-10-20T10:22:03.640Z,3.45
2022-10-20T10:24:46.556Z,3.40
2022-10-20T10:27:25.547Z,3.60
2022-10-20T10:29:54.420Z,3.25
2022-10-20T10:32:29.485Z,3.63
2022-10-20T10:35:29.261Z,2.80
2022-10-20T10:37:58.185Z,3.05
2022-10-20T10:41:09.944Z,2.45
2022-10-20T10:44:28.528Z,1.52
2022-10-20T10:47:15.892Z,1.20
2022-10-20T10:50:19.252Z,1.20
2022-10-20T10:53:20.655Z,1.08
2022-10-20T10:56:27.955Z,1.38
2022-10-20T10:59:12.553Z,1.20
2022-10-20T11:01:52.414Z,1.33
2022-10-20T11:05:06.068Z,1.30
2022-10-20T11:07:53.740Z,0.73
2022-10-20T11:10:29.214Z,1.00
2022-10-20T11:13:44.872Z,1.80
2022-10-20T11:16:44.174Z,1.60
2022-10-20T11:19:47.298Z,1.00
2022-10-20T11:22:29.088Z,0.80
2022-10-20T11:25:31.529Z,1.30
2022-10-20T11:27:59.146Z,1.25
2022-10-20T11:30:27.515Z,1.20
2022-10-20T11:33:19.161Z,1.35
2022-10-20T11:35:53.303Z,2.08
2022-10-20T11:38:56.239Z,2.25
2022-10-20T11:41:44.613Z,3.05
2022-10-20T11:44:24.373Z,3.22
2022-10-20T11:47:03.577Z,2.67
2022-10-20T11:49:33.782Z,1.98
2022-10-20T11:52:47.022Z,3.50
2022-10-20T11:55:48.564Z,3.55
2022-10-20T11:58:46.033Z,2.60
2022-10-20T12:01:50.189Z,2.05
2022-10-20T12:05:09.902Z,1.83
2022-10-20T12:08:28.179Z,2.83
2022-10-20T12:11:17.973Z,1.98
2022-10-20T12:14:14.879Z,2.00
2022-10-20T12:16:54.110Z,1.58
2022-10-20T12:19:22.506Z,2.03
2022-10-20T12:22:14.902Z,1.50
2022-10-20T12:25:01.704Z,1.50
2022-10-20T12:27:28.984Z,0.90
2022-10-20T12:30:02.591Z,1.08
2022-10-20T12:32:29.423Z,1.00
2022-10-20T12:35:21.354Z,1.00
2022-10-20T12:38:04.269Z,1.33
2022-10-20T12:40:55.463Z,1.70
2022-10-20T12:43:33.533Z,1.70
2022-10-20T12:46:31.451Z,2.05
2022-10-20T12:49:06.687Z,1.67
2022-10-20T12:51:53.039Z,1.73
2022-10-20T12:54:48.703Z,2.40
2022-10-20T12:57:41.698Z,1.67
2022-10-20T13:00:28.870Z,1.38
2022-10-20T13:02:58.727Z,2.00
2022-10-20T13:05:42.549Z,2.15
2022-10-20T13:08:21.158Z,1.80
2022-10-20T13:10:49.408Z,1.77
2022-10-20T13:13:19.269Z,1.90
2022-10-20T13:15:47.469Z,1.73
2022-10-20T13:18:20.369Z,1.65
2022-10-20T13:20:53.803Z,1.70
2022-10-20T13:23:37.456Z,1.35
2022-10-20T13:26:36.305Z,1.55
2022-10-20T13:29:17.121Z,1.10
2022-10-20T13:32:31.926Z,1.10
2022-10-20T13:35:08.028Z,1.17
2022-10-20T13:37:46.771Z,1.50
2022-10-20T13:40:31.086Z,1.45
2022-10-20T13:43:15.929Z,1.10
2022-10-20T13:45:56.939Z,1.30
2022-10-20T13:49:20.654Z,1.55
2022-10-20T13:51:56.961Z,1.20
2022-10-20T13:54:31.554Z,1.20
2022-10-20T13:56:58.967Z,1.60
2022-10-20T13:59:29.077Z,1.83
2022-10-20T14:02:31.410Z,1.08
2022-10-20T14:05:12.933Z,1.58
2022-10-20T14:07:42.924Z,1.27
2022-10-20T14:10:52.463Z,1.10
2022-10-20T14:13:24.651Z,1.55
2022-10-20T14:15:56.539Z,1.80
2022-10-20T14:18:39.136Z,1.80
2022-10-20T14:21:17.607Z,1.77
2022-10-20T14:23:47.005Z,1.88
2022-10-20T14:26:18.990Z,1.65
2022-10-20T14:28:48.694Z,1.90
2022-10-20T14:31:16.235Z,1.60
2022-10-20T14:33:46.102Z,1.58
2022-10-20T14:36:28.944Z,1.75
2022-10-20T14:39:01.210Z,1.90
2022-10-20T14:41:35.099Z,1.65
2022-10-20T14:44:12.187Z,1.77
2022-10-20T14:46:47.839Z,2.53
2022-10-20T14:49:19.294Z,1.80
2022-10-20T14:52:00.263Z,2.60
2022-10-20T14:54:39.519Z,1.73
2022-10-20T14:57:09.211Z,1.67
2022-10-20T15:00:04.597Z,1.70
2022-10-20T15:02:42.653Z,2.28
2022-10-20T15:05:42.399Z,2.00
2022-10-20T15:08:18.397Z,2.00
2022-10-20T15:10:46.051Z,2.30
2022-10-20T15:13:31.534Z,2.08
2022-10-20T15:16:04.521Z,1.50
2022-10-20T15:18:33.452Z,2.03
2022-10-20T15:21:02.305Z,2.58
2022-10-20T15:23:29.727Z,1.95
2022-10-20T15:26:10.500Z,1.50
2022-10-20T15:28:45.576Z,1.55
2022-10-20T15:31:26.766Z,1.38
2022-10-20T15:33:55.707Z,1.88
2022-10-20T15:36:33.881Z,1.60
2022-10-20T15:39:01.968Z,1.10
2022-10-20T15:41:33.437Z,1.40
2022-10-20T15:44:15.452Z,1.65
2022-10-20T15:46:44.875Z,2.65
2022-10-20T15:49:12.987Z,1.40
2022-10-20T15:51:44.248Z,1.38
2022-10-20T15:54:21.153Z,1.23
2022-10-20T15:56:48.476Z,1.60
2022-10-20T15:59:15.414Z,2.03
2022-10-20T16:01:42.397Z,1.90
2022-10-20T16:04:31.346Z,1.90
2022-10-20T16:07:02.578Z,1.50
2022-10-20T16:09:30.339Z,2.25
2022-10-20T16:11:57.268Z,2.30
2022-10-20T16:14:24.242Z,2.25
2022-10-20T16:16:51.298Z,1.60
2022-10-20T16:19:18.203Z,2.00
2022-10-20T16:21:45.137Z,2.42
2022-10-20T16:24:12.058Z,2.95
2022-10-20T16:26:39.018Z,2.57
2022-10-20T16:29:05.939Z,2.50
2022-10-20T16:31:32.909Z,2.15
2022-10-20T16:34:00.495Z,2.13
2022-10-20T16:36:27.633Z,2.40
2022-10-20T16:38:56.862Z,2.40
2022-10-20T16:41:24.024Z,2.47
2022-10-20T16:43:50.997Z,1.83
2022-10-20T16:46:18.214Z,2.30
2022-10-20T16:48:48.034Z,2.70
2022-10-20T16:51:16.068Z,3.38
2022-10-20T16:53:43.232Z,3.28
2022-10-20T16:56:10.718Z,3.90
2022-10-20T16:58:37.653Z,4.07
2022-10-20T17:01:08.788Z,4.30
2022-10-20T17:06:19.270Z,4.05
2022-10-20T17:08:47.115Z,4.05
2022-10-20T17:11:21.683Z,3.92
2022-10-20T17:13:49.060Z,3.83
2022-10-20T17:16:30.061Z,3.28
2022-10-20T17:18:59.185Z,2.97
2022-10-20T17:21:28.154Z,3.42
2022-10-20T17:23:55.230Z,3.35
2022-10-20T17:26:25.003Z,2.83
2022-10-20T17:29:03.059Z,3.08
2022-10-20T17:31:30.460Z,3.30
2022-10-20T17:33:59.223Z,3.47
2022-10-20T17:36:28.500Z,4.03
2022-10-20T17:39:02.535Z,3.97
2022-10-20T17:41:30.302Z,4.00
2022-10-20T17:44:04.111Z,4.03
2022-10-20T17:46:31.963Z,4.27
2022-10-20T17:49:01.551Z,4.80
2022-10-20T17:51:31.921Z,4.80
2022-10-20T17:54:01.696Z,4.43
2022-10-20T17:56:32.036Z,4.75
2022-10-20T17:59:00.636Z,4.68
2022-10-20T18:01:34.575Z,4.68
2022-10-20T18:04:09.836Z,3.83
2022-10-20T18:06:38.141Z,4.88
2022-10-20T18:09:11.050Z,10.67
2022-10-20T18:11:40.950Z,7.07
2022-10-20T18:14:07.915Z,6.28
2022-10-20T18:16:37.996Z,5.10
2022-10-20T18:19:06.133Z,4.60
2022-10-20T18:21:33.892Z,4.93
2022-10-20T18:24:05.042Z,4.97
2022-10-20T18:26:35.308Z,5.17
2022-10-20T18:29:06.017Z,5.03
2022-10-20T18:31:35.061Z,5.97
2022-10-20T18:34:07.128Z,6.77
2022-10-20T18:36:39.134Z,7.73
2022-10-20T18:39:10.055Z,6.17
2022-10-20T18:41:40.551Z,5.90
2022-10-20T18:44:14.037Z,4.93
2022-10-20T18:46:42.533Z,6.07
2022-10-20T18:49:12.726Z,6.87
2022-10-20T18:51:40.536Z,5.60
2022-10-20T18:54:09.182Z,5.43
2022-10-20T18:56:36.555Z,5.30
2022-10-20T18:59:08.999Z,5.37
2022-10-20T19:01:38.791Z,6.00
2022-10-20T19:04:07.530Z,4.73
2022-10-20T19:06:44.387Z,4.37
2022-10-20T19:09:15.716Z,5.47
2022-10-20T19:11:43.849Z,5.07
2022-10-20T19:14:11.695Z,6.27
2022-10-20T19:16:41.803Z,5.70
2022-10-20T19:19:09.669Z,6.07
2022-10-20T19:21:37.099Z,6.23
2022-10-20T19:24:30.276Z,5.60
2022-10-20T19:27:24.682Z,6.53
2022-10-20T19:29:45.044Z,5.70
2022-10-20T19:32:12.542Z,5.80
2022-10-20T19:34:41.098Z,5.17
2022-10-20T19:37:09.057Z,8.37
2022-10-20T19:39:40.023Z,7.03
2022-10-20T19:42:08.594Z,5.70
2022-10-20T19:44:36.334Z,5.83
2022-10-20T19:47:04.955Z,5.83
2022-10-20T19:49:32.110Z,5.43
2022-10-20T19:51:59.178Z,5.80
2022-10-20T19:54:26.231Z,5.13
2022-10-20T19:56:53.205Z,5.90
2022-10-20T19:59:20.414Z,4.93
2022-10-20T20:01:49.645Z,6.33
2022-10-20T20:04:16.619Z,5.27
2022-10-20T20:06:43.602Z,5.40
2022-10-20T20:09:12.103Z,4.37
2022-10-20T20:11:39.257Z,5.47
2022-10-20T20:14:18.410Z,5.10
2022-10-20T20:16:46.686Z,5.40
2022-10-20T20:19:16.457Z,5.20
2022-10-20T20:21:44.192Z,4.70
2022-10-20T20:24:12.826Z,4.87
2022-10-20T20:26:39.900Z,4.70
2022-10-20T20:29:06.885Z,5.17
2022-10-20T20:31:34.013Z,5.87
2022-10-20T20:34:01.591Z,6.83
2022-10-20T20:36:29.159Z,6.20
2022-10-20T20:38:58.342Z,5.77
2022-10-20T20:41:28.003Z,5.73
2022-10-20T20:43:55.296Z,6.27
2022-10-20T20:46:24.245Z,5.10
2022-10-20T20:48:51.725Z,6.07
2022-10-20T20:51:18.914Z,6.13
2022-10-20T20:53:45.857Z,6.30
2022-10-20T20:56:15.729Z,5.60
2022-10-20T20:58:49.018Z,6.60
2022-10-20T21:01:22.066Z,5.97
2022-10-20T21:03:57.895Z,6.50
2022-10-20T21:06:33.690Z,5.70
2022-10-20T21:09:01.469Z,5.80
2022-10-20T21:11:28.595Z,5.70
2022-10-20T21:13:57.549Z,4.87
2022-10-20T21:16:26.272Z,4.93
2022-10-20T21:18:57.215Z,5.10
2022-10-20T21:21:28.113Z,4.43
2022-10-20T21:23:56.899Z,4.80
2022-10-20T21:26:24.267Z,4.77
2022-10-20T21:28:51.541Z,4.70
2022-10-20T21:31:22.163Z,4.97
2022-10-20T21:34:05.675Z,5.07
2022-10-20T21:36:37.857Z,4.57
2022-10-20T21:39:07.749Z,4.83
2022-10-20T21:41:35.934Z,5.60
2022-10-20T21:44:06.530Z,5.60
2022-10-20T21:46:36.991Z,4.90
2022-10-20T21:49:07.816Z,5.63
2022-10-20T21:51:38.617Z,5.00
2022-10-20T21:54:10.181Z,5.00
2022-10-20T21:56:41.200Z,5.47
2022-10-20T21:59:15.568Z,5.53
2022-10-20T22:01:42.506Z,6.10
2022-10-20T22:04:09.447Z,5.67
2022-10-20T22:06:38.449Z,5.60
2022-10-20T22:09:06.764Z,5.50
2022-10-20T22:11:40.964Z,6.07
2022-10-20T22:14:07.979Z,6.07
2022-10-20T22:16:39.144Z,5.80
2022-10-20T22:19:13.083Z,6.07
2022-10-20T22:21:43.667Z,6.90
2022-10-20T22:24:10.799Z,6.93
2022-10-20T22:26:38.666Z,6.53
2022-10-20T22:29:09.566Z,6.80
2022-10-20T22:31:38.821Z,7.17
2022-10-20T22:34:06.809Z,7.73
2022-10-20T22:36:33.861Z,7.27
2022-10-20T22:39:00.932Z,7.20
2022-10-20T22:41:28.047Z,7.63
2022-10-20T22:43:54.963Z,7.37
2022-10-20T22:46:21.889Z,7.50
2022-10-20T22:48:48.979Z,7.67
2022-10-20T22:51:16.560Z,7.57
2022-10-20T22:53:43.857Z,8.13
2022-10-20T22:56:14.891Z,8.23
2022-10-20T22:58:42.506Z,8.77
2022-10-20T23:01:19.238Z,8.97
2022-10-20T23:03:47.356Z,8.53
2022-10-20T23:06:24.651Z,8.30
2022-10-20T23:08:55.013Z,8.80
2022-10-20T23:11:22.131Z,9.73
2022-10-20T23:13:51.029Z,9.33
2022-10-20T23:16:18.959Z,9.13
2022-10-20T23:18:46.342Z,9.73
2022-10-20T23:21:14.215Z,10.10
2022-10-20T23:23:41.531Z,11.03
2022-10-20T23:26:09.798Z,11.00
2022-10-20T23:28:37.922Z,10.07
2022-10-20T23:31:20.702Z,10.53
2022-10-20T23:33:50.065Z,10.70
2022-10-20T23:36:17.596Z,11.30
2022-10-20T23:38:46.289Z,11.97
2022-10-20T23:41:13.635Z,11.03
2022-10-20T23:43:40.851Z,11.30
2022-10-20T23:46:08.708Z,12.37
2022-10-20T23:48:35.905Z,10.23
2022-10-20T23:51:02.911Z,10.93
2022-10-20T23:53:30.456Z,10.73
2022-10-20T23:55:57.395Z,11.10
2022-10-20T23:58:24.424Z,12.50
